Time;durP1;ratioP1;P1;durP2;ratioP2;P2;SDS_P1;SDS_P2;PMS_P1;PMS_P2;Temp;Humidity;BMP_temperature;BMP_pressure;BME280_temperature;BME280_humidity;BME280_pressure;Samples;Min_cycle;Max_cycle;Signal;HPM_P1;HPM_P2
2021/05/19 00:01:49;;;;;;;3.80;2.73;;;13.60;99.90;;;;;;5032748;28;20326;-70
2021/05/19 00:04:15;;;;;;;2.87;2.57;;;13.50;99.90;;;;;;5032589;28;20264;-68
2021/05/19 00:06:41;;;;;;;4.30;2.97;;;13.40;99.90;;;;;;5033649;28;20857;-67
2021/05/19 00:09:09;;;;;;;3.43;3.13;;;13.50;99.90;;;;;;5033664;28;20463;-68
2021/05/19 00:11:36;;;;;;;2.70;2.50;;;13.50;99.90;;;;;;5033982;28;20530;-68
2021/05/19 00:14:04;;;;;;;4.53;2.77;;;13.60;99.90;;;;;;5033786;28;20826;-68
2021/05/19 00:16:30;;;;;;;3.33;2.40;;;13.50;99.90;;;;;;5033948;28;20458;-69
2021/05/19 00:18:55;;;;;;;4.60;3.07;;;13.60;99.90;;;;;;5033620;28;20478;-70
2021/05/19 00:21:21;;;;;;;3.10;2.80;;;13.50;99.90;;;;;;5033892;28;20431;-69
2021/05/19 00:23:47;;;;;;;3.37;2.90;;;12.80;99.90;;;;;;5033677;28;20686;-69
2021/05/19 00:26:13;;;;;;;3.17;2.83;;;12.40;99.90;;;;;;5033712;28;20228;-68
2021/05/19 00:28:39;;;;;;;2.77;2.57;;;12.30;99.90;;;;;;5032300;28;20658;-69
2021/05/19 00:31:05;;;;;;;2.97;2.67;;;12.30;99.90;;;;;;5033679;28;20408;-70
2021/05/19 00:33:31;;;;;;;4.87;3.17;;;12.50;99.90;;;;;;5033499;28;20431;-69
2021/05/19 00:35:57;;;;;;;3.27;2.97;;;12.70;99.90;;;;;;5033739;28;20894;-69
2021/05/19 00:38:22;;;;;;;3.33;2.80;;;12.80;99.90;;;;;;5033421;28;20431;-70
2021/05/19 00:40:48;;;;;;;2.60;2.40;;;12.80;99.90;;;;;;5032206;28;20584;-68
2021/05/19 00:43:14;;;;;;;3.43;3.00;;;12.90;99.90;;;;;;5033441;28;20191;-68
2021/05/19 00:45:40;;;;;;;2.90;2.70;;;12.80;99.90;;;;;;5033720;28;20426;-71
2021/05/19 00:48:09;;;;;;;3.30;3.00;;;12.70;99.90;;;;;;5033399;28;20190;-69
2021/05/19 00:50:36;;;;;;;2.83;2.53;;;12.50;99.90;;;;;;5033378;28;20850;-68
2021/05/19 00:53:02;;;;;;;2.97;2.67;;;12.40;99.90;;;;;;5033293;28;20932;-68
2021/05/19 00:55:28;;;;;;;3.00;2.70;;;12.50;99.90;;;;;;5032098;28;20403;-70
2021/05/19 00:57:55;;;;;;;5.97;2.80;;;12.70;99.90;;;;;;5033306;28;20430;-68
2021/05/19 01:00:23;;;;;;;2.73;2.53;;;12.80;99.90;;;;;;5033067;28;21008;-69
2021/05/19 01:02:49;;;;;;;2.67;2.20;;;12.70;99.90;;;;;;5033122;28;20414;-68
2021/05/19 01:05:22;;;;;;;2.50;2.30;;;12.70;99.90;;;;;;5033281;28;20407;-70
2021/05/19 01:10:32;;;;;;;3.20;2.50;;;12.90;99.90;;;;;;5033249;28;20461;-69
2021/05/19 01:12:58;;;;;;;2.77;2.50;;;12.90;99.90;;;;;;5033221;28;20510;-69
2021/05/19 01:15:23;;;;;;;6.57;2.87;;;12.80;99.90;;;;;;5033132;28;20182;-68
2021/05/19 01:17:50;;;;;;;2.80;2.47;;;12.90;99.90;;;;;;5033178;28;20292;-69
2021/05/19 01:20:16;;;;;;;3.30;2.77;;;13.00;99.90;;;;;;5033080;28;20207;-69
2021/05/19 01:22:42;;;;;;;4.20;3.30;;;13.00;99.90;;;;;;5032571;28;20483;-68
2021/05/19 01:25:09;;;;;;;2.63;2.43;;;13.00;99.90;;;;;;5036738;28;20458;-69
2021/05/19 01:27:34;;;;;;;3.67;3.23;;;12.90;99.90;;;;;;5037236;28;20766;-69
2021/05/19 01:30:03;;;;;;;4.53;2.80;;;12.80;99.90;;;;;;5036707;28;20454;-68
2021/05/19 01:32:29;;;;;;;3.33;3.03;;;12.80;99.90;;;;;;5036457;28;20706;-70
2021/05/19 01:34:54;;;;;;;5.83;3.40;;;12.60;99.90;;;;;;5036631;28;20420;-70
2021/05/19 01:37:20;;;;;;;4.00;3.00;;;12.40;99.90;;;;;;5036788;28;20644;-68
2021/05/19 01:39:46;;;;;;;3.50;3.20;;;12.50;99.90;;;;;;5036370;28;20210;-69
2021/05/19 01:42:12;;;;;;;3.07;2.67;;;12.70;99.90;;;;;;5035124;28;20457;-68
2021/05/19 01:44:39;;;;;;;3.50;3.00;;;12.80;99.90;;;;;;5036399;28;20498;-69
2021/05/19 01:47:07;;;;;;;4.63;2.93;;;12.80;99.90;;;;;;5036697;28;20194;-69
2021/05/19 01:49:40;;;;;;;4.20;3.63;;;12.90;99.90;;;;;;5035092;28;20420;-69
2021/05/19 01:52:07;;;;;;;3.10;2.80;;;12.90;99.90;;;;;;5036696;28;20427;-67
2021/05/19 01:54:33;;;;;;;8.27;3.33;;;13.00;99.90;;;;;;5036280;28;20897;-69
2021/05/19 01:57:00;;;;;;;3.97;3.20;;;12.90;99.90;;;;;;5036558;28;20581;-69
2021/05/19 01:59:26;;;;;;;3.90;3.60;;;12.80;99.90;;;;;;5036067;28;20956;-71
2021/05/19 02:01:51;;;;;;;6.00;3.37;;;12.70;99.90;;;;;;5036342;28;20386;-70
2021/05/19 02:04:18;;;;;;;5.20;3.50;;;12.60;99.90;;;;;;5036045;28;20423;-70
2021/05/19 02:06:56;;;;;;;4.87;3.67;;;12.50;99.90;;;;;;5036353;28;20202;-68
2021/05/19 02:09:23;;;;;;;2.90;2.70;;;12.50;99.90;;;;;;5035871;28;20549;-70
2021/05/19 02:11:50;;;;;;;4.03;3.30;;;12.40;99.90;;;;;;5034552;28;20886;-68
2021/05/19 02:14:17;;;;;;;4.53;3.30;;;12.50;99.90;;;;;;5034501;28;20420;-70
2021/05/19 02:16:43;;;;;;;3.87;3.47;;;12.60;99.90;;;;;;5036072;28;20439;-69
2021/05/19 02:19:10;;;;;;;4.20;3.80;;;12.60;99.90;;;;;;5035669;28;20485;-70
2021/05/19 02:21:44;;;;;;;3.80;3.50;;;12.70;99.90;;;;;;5035957;28;20769;-67
2021/05/19 02:24:11;;;;;;;3.63;3.15;;;12.60;99.90;;;;;;5035681;28;20403;-69
2021/05/19 02:26:38;;;;;;;4.80;3.10;;;12.60;99.90;;;;;;5035443;28;20198;-68
2021/05/19 02:29:04;;;;;;;3.20;2.90;;;12.50;99.90;;;;;;5035627;28;20917;-68
2021/05/19 02:31:30;;;;;;;4.07;3.67;;;12.60;99.90;;;;;;5035669;28;20486;-68
2021/05/19 02:33:56;;;;;;;4.00;3.20;;;12.50;99.90;;;;;;5034883;28;20428;-70
2021/05/19 02:36:21;;;;;;;4.57;3.73;;;12.50;99.90;;;;;;5035259;28;20178;-69
2021/05/19 02:38:47;;;;;;;3.47;2.60;;;12.50;99.90;;;;;;5035378;28;20407;-69
2021/05/19 02:41:13;;;;;;;3.77;3.47;;;12.30;99.90;;;;;;5035421;28;20178;-69
2021/05/19 02:43:39;;;;;;;3.37;3.07;;;12.20;99.90;;;;;;5035366;28;20177;-69
2021/05/19 02:46:05;;;;;;;3.40;3.10;;;12.10;99.90;;;;;;5035460;28;20198;-69
2021/05/19 02:48:31;;;;;;;4.97;3.67;;;12.20;99.90;;;;;;5035093;28;20416;-69
2021/05/19 02:50:57;;;;;;;4.13;3.60;;;12.30;99.90;;;;;;5035209;28;20790;-68
2021/05/19 02:53:22;;;;;;;3.87;3.53;;;12.30;99.90;;;;;;5035031;28;20595;-68
2021/05/19 02:55:48;;;;;;;3.20;2.90;;;12.20;99.90;;;;;;5035185;28;20193;-67
2021/05/19 02:58:14;;;;;;;4.80;3.50;;;12.10;99.90;;;;;;5034981;28;20202;-69
2021/05/19 03:00:40;;;;;;;4.73;3.47;;;12.10;99.90;;;;;;5035019;28;20790;-68
2021/05/19 03:03:06;;;;;;;3.50;3.20;;;12.20;99.90;;;;;;5033633;28;20204;-69
2021/05/19 03:05:32;;;;;;;4.53;2.87;;;12.20;99.90;;;;;;5034997;28;20487;-68
2021/05/19 03:07:57;;;;;;;3.85;3.13;;;12.20;99.90;;;;;;5033572;28;20202;-67
2021/05/19 03:10:23;;;;;;;3.57;3.27;;;12.30;99.90;;;;;;5034760;28;20232;-67
2021/05/19 03:12:51;;;;;;;3.30;3.00;;;12.40;99.90;;;;;;5034903;28;20246;-69
2021/05/19 03:15:18;;;;;;;3.40;2.90;;;12.30;99.90;;;;;;5034705;28;20540;-67
2021/05/19 03:17:44;;;;;;;5.00;3.28;;;12.40;99.90;;;;;;5033530;28;20944;-68
2021/05/19 03:20:10;;;;;;;4.00;3.67;;;12.20;99.90;;;;;;5034308;28;20218;-70
2021/05/19 03:22:36;;;;;;;3.40;3.10;;;12.10;99.90;;;;;;5033256;28;20455;-68
2021/05/19 03:25:03;;;;;;;7.33;3.20;;;12.10;99.90;;;;;;5034394;28;20407;-68
2021/05/19 03:27:29;;;;;;;3.57;3.27;;;12.10;99.90;;;;;;5033283;28;20435;-70
2021/05/19 03:29:55;;;;;;;5.03;3.63;;;12.20;99.90;;;;;;5034479;28;20422;-68
2021/05/19 03:32:20;;;;;;;3.80;3.30;;;12.30;99.90;;;;;;5034596;28;20195;-67
2021/05/19 03:34:46;;;;;;;6.43;3.60;;;12.30;99.90;;;;;;5034509;28;20179;-70
2021/05/19 03:37:11;;;;;;;5.10;3.50;;;12.40;99.90;;;;;;5034645;28;20273;-67
2021/05/19 03:39:37;;;;;;;6.30;3.30;;;12.30;99.90;;;;;;5032977;28;20264;-68
2021/05/19 03:42:03;;;;;;;5.23;3.50;;;12.40;99.90;;;;;;5034516;28;20536;-67
2021/05/19 03:44:28;;;;;;;3.03;2.73;;;12.40;99.90;;;;;;5034270;28;20205;-68
2021/05/19 03:46:54;;;;;;;3.67;3.37;;;12.40;99.90;;;;;;5034123;28;20439;-69
2021/05/19 03:49:20;;;;;;;3.70;3.20;;;12.40;99.90;;;;;;5034098;28;20547;-70
2021/05/19 03:51:46;;;;;;;5.73;2.60;;;12.60;99.90;;;;;;5032773;28;20477;-67
2021/05/19 03:54:12;;;;;;;5.73;3.43;;;12.90;99.90;;;;;;5032773;28;20194;-68
2021/05/19 03:56:37;;;;;;;7.07;3.47;;;13.10;99.90;;;;;;5034249;28;20466;-67
2021/05/19 03:59:04;;;;;;;3.40;3.10;;;13.20;99.90;;;;;;5033580;28;20305;-69
2021/05/19 04:01:29;;;;;;;3.20;3.00;;;13.30;99.90;;;;;;5032202;28;20195;-69
2021/05/19 04:03:55;;;;;;;4.30;3.57;;;13.30;99.90;;;;;;5032741;28;20350;-67
2021/05/19 04:06:24;;;;;;;5.00;3.10;;;13.30;99.90;;;;;;5032542;28;20636;-68
2021/05/19 04:08:52;;;;;;;4.50;3.60;;;13.40;99.90;;;;;;5033781;28;20230;-70
2021/05/19 04:11:18;;;;;;;5.87;3.33;;;13.30;99.90;;;;;;5033858;28;20897;-69
2021/05/19 04:13:43;;;;;;;4.97;4.47;;;13.20;99.90;;;;;;5032329;28;20526;-69
2021/05/19 04:16:11;;;;;;;5.00;3.90;;;13.10;99.90;;;;;;5033779;28;20170;-69
2021/05/19 04:18:36;;;;;;;3.80;3.50;;;13.00;99.90;;;;;;5033641;28;20265;-68
2021/05/19 04:21:02;;;;;;;5.40;3.50;;;13.00;99.90;;;;;;5031929;28;20569;-69
2021/05/19 04:23:28;;;;;;;4.93;3.50;;;13.00;99.90;;;;;;5065575;28;20253;-68
2021/05/19 04:25:54;;;;;;;3.50;3.20;;;12.90;99.90;;;;;;5033774;28;20620;-67
2021/05/19 04:28:20;;;;;;;8.57;5.20;;;12.90;99.90;;;;;;5065690;28;20573;-67
2021/05/19 04:30:46;;;;;;;4.43;3.93;;;13.00;99.90;;;;;;5033559;28;20416;-69
2021/05/19 04:33:14;;;;;;;5.80;3.67;;;13.00;99.90;;;;;;5032193;28;20465;-68
2021/05/19 04:35:40;;;;;;;3.60;3.30;;;13.10;99.90;;;;;;5033638;28;21051;-69
2021/05/19 04:38:05;;;;;;;5.53;4.07;;;13.80;99.90;;;;;;5032137;28;20440;-69
2021/05/19 04:40:31;;;;;;;3.97;3.47;;;14.70;99.90;;;;;;5033419;28;20679;-68
2021/05/19 04:42:57;;;;;;;6.27;3.73;;;15.10;99.90;;;;;;5033494;28;20246;-69
2021/05/19 04:45:23;;;;;;;4.00;3.60;;;15.50;99.90;;;;;;5033287;28;20166;-70
2021/05/19 04:47:48;;;;;;;4.20;3.80;;;15.60;99.90;;;;;;5048504;28;20249;-70
2021/05/19 04:50:15;;;;;;;3.70;3.00;;;15.70;99.90;;;;;;5031594;28;20427;-69
2021/05/19 04:52:40;;;;;;;4.13;3.43;;;15.80;99.90;;;;;;5045313;28;20672;-68
2021/05/19 04:55:07;;;;;;;4.70;3.57;;;15.90;99.90;;;;;;5032037;28;20427;-68
2021/05/19 04:57:34;;;;;;;5.60;3.47;;;16.00;99.90;;;;;;5033341;28;20512;-70
2021/05/19 04:59:59;;;;;;;7.53;3.67;;;15.70;99.90;;;;;;5037154;28;20554;-68
2021/05/19 05:02:25;;;;;;;5.63;3.93;;;15.30;99.90;;;;;;5035498;28;20593;-68
2021/05/19 05:04:52;;;;;;;6.70;4.13;;;15.60;99.90;;;;;;5033279;28;20419;-69
2021/05/19 05:07:18;;;;;;;5.83;4.23;;;15.50;99.90;;;;;;5035512;28;20435;-68
2021/05/19 05:09:47;;;;;;;7.33;4.00;;;15.40;99.90;;;;;;5036177;28;20956;-69
2021/05/19 05:12:16;;;;;;;5.40;3.93;;;14.90;99.90;;;;;;5035053;28;20845;-68
2021/05/19 05:14:42;;;;;;;9.77;5.93;;;14.90;99.90;;;;;;5036323;28;20411;-67
2021/05/19 05:17:08;;;;;;;11.10;6.40;;;14.40;99.90;;;;;;5036370;28;20539;-67
2021/05/19 05:19:34;;;;;;;5.30;4.50;;;14.10;99.90;;;;;;5035110;28;20214;-69
2021/05/19 05:21:59;;;;;;;4.70;3.77;;;13.90;99.90;;;;;;5037183;28;20944;-68
2021/05/19 05:24:25;;;;;;;4.40;3.90;;;13.90;99.90;;;;;;5036741;28;20186;-69
2021/05/19 05:26:51;;;;;;;3.83;3.33;;;13.60;99.90;;;;;;5036793;28;20970;-68
2021/05/19 05:29:16;;;;;;;3.63;3.33;;;13.50;99.90;;;;;;5052126;28;20553;-69
2021/05/19 05:31:42;;;;;;;5.40;4.53;;;13.60;99.90;;;;;;5036938;28;20207;-69
2021/05/19 05:34:08;;;;;;;5.53;3.80;;;13.60;99.90;;;;;;5036617;28;20178;-69
2021/05/19 05:36:33;;;;;;;6.30;3.90;;;13.40;99.90;;;;;;5036788;28;20203;-69
2021/05/19 05:38:59;;;;;;;4.50;4.10;;;13.20;99.90;;;;;;5018801;28;20183;-69
2021/05/19 05:41:24;;;;;;;5.30;4.80;;;12.90;99.90;;;;;;5023639;28;20700;-67
2021/05/19 05:43:50;;;;;;;5.70;3.40;;;12.80;99.90;;;;;;5035387;28;20178;-70
2021/05/19 05:46:16;;;;;;;4.80;3.70;;;12.70;99.90;;;;;;5033874;28;20261;-67
2021/05/19 05:48:42;;;;;;;3.90;3.50;;;12.70;99.90;;;;;;5033136;28;20201;-71
2021/05/19 05:51:08;;;;;;;32.67;17.63;;;12.70;99.90;;;;;;5032965;28;20301;-68
2021/05/19 05:53:33;;;;;;;27.30;17.83;;;12.80;99.90;;;;;;5033528;28;20491;-69
2021/05/19 05:55:59;;;;;;;7.93;3.87;;;13.00;99.90;;;;;;5032769;28;20264;-69
2021/05/19 05:58:24;;;;;;;4.70;4.00;;;13.10;99.90;;;;;;5032504;28;20194;-68
2021/05/19 06:00:50;;;;;;;5.20;4.30;;;13.20;99.90;;;;;;5026175;28;20227;-69
2021/05/19 06:03:16;;;;;;;3.73;3.10;;;13.30;99.90;;;;;;5031352;28;20201;-68
2021/05/19 06:05:42;;;;;;;5.40;4.10;;;13.40;99.90;;;;;;5034503;28;20178;-70
2021/05/19 06:08:08;;;;;;;4.80;4.00;;;13.40;99.90;;;;;;5032816;28;20230;-67
2021/05/19 06:10:34;;;;;;;5.20;4.23;;;13.50;99.90;;;;;;5034402;28;20968;-68
2021/05/19 06:13:00;;;;;;;5.63;3.93;;;13.50;99.90;;;;;;5035710;28;20518;-68
2021/05/19 06:15:26;;;;;;;4.87;4.10;;;13.60;99.90;;;;;;5035520;28;20678;-68
2021/05/19 06:17:51;;;;;;;4.67;4.20;;;13.50;99.90;;;;;;5033589;28;20198;-68
2021/05/19 06:20:18;;;;;;;4.03;3.63;;;13.60;99.90;;;;;;5027444;28;20469;-68
2021/05/19 06:22:43;;;;;;;3.63;3.33;;;13.60;99.90;;;;;;5025474;28;20241;-68
2021/05/19 06:25:09;;;;;;;4.37;3.97;;;13.60;99.90;;;;;;5026208;28;20840;-68
2021/05/19 06:27:35;;;;;;;4.60;3.87;;;13.70;99.90;;;;;;5028628;28;20688;-69
2021/05/19 06:30:01;;;;;;;5.00;4.50;;;13.70;99.90;;;;;;5028341;28;20839;-70
2021/05/19 06:32:26;;;;;;;6.13;4.00;;;13.80;99.90;;;;;;5026880;28;20654;-69
2021/05/19 06:34:53;;;;;;;5.20;4.43;;;13.80;99.90;;;;;;5025733;28;20277;-69
2021/05/19 06:37:19;;;;;;;5.10;4.60;;;14.00;99.90;;;;;;5023871;28;20233;-67
2021/05/19 06:39:44;;;;;;;7.23;4.40;;;14.00;99.90;;;;;;5029172;28;20463;-68
2021/05/19 06:42:10;;;;;;;4.70;4.10;;;14.00;99.90;;;;;;5030725;28;20210;-68
2021/05/19 06:44:36;;;;;;;4.33;3.93;;;14.00;99.90;;;;;;5031443;28;20204;-71
2021/05/19 06:47:01;;;;;;;4.23;3.83;;;14.10;99.90;;;;;;5024700;28;20221;-67
2021/05/19 06:49:27;;;;;;;6.07;4.63;;;14.20;99.90;;;;;;5026468;28;20202;-68
2021/05/19 06:51:52;;;;;;;5.63;4.87;;;14.30;99.90;;;;;;5030030;28;20277;-69
2021/05/19 06:54:18;;;;;;;4.60;4.20;;;14.40;99.90;;;;;;5029384;28;20225;-69
2021/05/19 06:56:45;;;;;;;4.30;4.00;;;14.50;99.90;;;;;;5031427;28;20209;-67
2021/05/19 06:59:16;;;;;;;5.10;4.47;;;14.40;99.90;;;;;;5030667;28;20210;-70
2021/05/19 07:01:42;;;;;;;7.20;5.10;;;14.50;99.90;;;;;;5031468;28;20871;-68
2021/05/19 07:04:07;;;;;;;7.30;5.60;;;14.60;99.90;;;;;;5061049;28;20419;-69
2021/05/19 07:06:33;;;;;;;5.33;4.17;;;14.60;99.90;;;;;;5028252;28;20206;-69
2021/05/19 07:08:59;;;;;;;6.10;5.50;;;14.60;99.90;;;;;;5029035;28;20459;-69
2021/05/19 07:11:25;;;;;;;6.63;5.97;;;14.60;99.90;;;;;;5030862;28;20439;-69
2021/05/19 07:13:53;;;;;;;5.10;4.60;;;14.50;99.90;;;;;;5030248;28;20185;-70
2021/05/19 07:16:22;;;;;;;5.07;4.43;;;14.50;99.90;;;;;;5028175;28;20423;-68
2021/05/19 07:18:48;;;;;;;4.80;4.13;;;14.50;99.90;;;;;;5032125;28;20428;-69
2021/05/19 07:21:14;;;;;;;4.50;4.10;;;14.60;99.90;;;;;;5026405;28;20967;-66
2021/05/19 07:23:40;;;;;;;4.50;4.10;;;14.70;99.90;;;;;;5029225;28;20588;-67
2021/05/19 07:26:06;;;;;;;7.40;3.90;;;14.70;99.90;;;;;;5026081;28;20202;-67
2021/05/19 07:28:32;;;;;;;4.37;3.93;;;14.70;99.90;;;;;;5030527;28;20206;-67
2021/05/19 07:30:57;;;;;;;5.10;4.30;;;14.80;99.90;;;;;;5031559;28;20440;-68
2021/05/19 07:33:23;;;;;;;4.20;3.83;;;14.90;99.90;;;;;;5030109;28;20446;-67
2021/05/19 07:35:49;;;;;;;5.27;3.83;;;15.00;99.90;;;;;;5031018;28;20214;-67
2021/05/19 07:38:15;;;;;;;4.40;4.00;;;15.10;99.90;;;;;;5031396;28;20202;-69
2021/05/19 07:40:41;;;;;;;4.10;3.77;;;15.20;99.90;;;;;;5032786;28;20293;-67
2021/05/19 07:43:07;;;;;;;4.13;3.73;;;15.20;99.90;;;;;;5028709;28;20206;-66
2021/05/19 07:45:34;;;;;;;7.53;4.47;;;15.20;99.90;;;;;;5033264;28;20494;-66
2021/05/19 07:47:59;;;;;;;4.20;3.80;;;15.40;99.90;;;;;;5030253;28;20285;-70
2021/05/19 07:50:25;;;;;;;4.67;4.00;;;15.50;99.90;;;;;;5031787;28;20511;-67
2021/05/19 07:52:51;;;;;;;4.63;3.80;;;15.50;99.90;;;;;;5031443;28;20580;-71
2021/05/19 07:55:24;;;;;;;4.43;4.00;;;15.60;99.90;;;;;;5018843;28;20462;-70
2021/05/19 07:57:53;;;;;;;5.17;4.23;;;15.80;99.90;;;;;;5028646;28;20448;-70
2021/05/19 08:03:07;;;;;;;4.80;3.67;;;15.80;99.90;;;;;;5020023;28;20499;-67
2021/05/19 08:05:33;;;;;;;4.13;3.80;;;15.90;99.90;;;;;;5027760;28;20464;-67
2021/05/19 08:07:58;;;;;;;4.70;4.20;;;15.90;99.90;;;;;;5032840;28;20206;-69
2021/05/19 08:10:24;;;;;;;4.10;3.77;;;16.10;99.90;;;;;;5029423;28;20214;-67
2021/05/19 08:12:51;;;;;;;4.77;4.37;;;16.20;99.90;;;;;;5029011;28;20735;-70
2021/05/19 08:15:17;;;;;;;4.53;4.20;;;16.20;99.90;;;;;;5029113;28;20598;-68
2021/05/19 08:17:43;;;;;;;5.73;3.80;;;16.30;99.90;;;;;;5028408;28;20869;-70
2021/05/19 08:20:09;;;;;;;4.20;3.80;;;16.40;99.90;;;;;;5030245;28;20463;-69
2021/05/19 08:22:35;;;;;;;6.73;4.00;;;16.40;99.90;;;;;;5025365;28;20486;-70
2021/05/19 08:25:00;;;;;;;4.10;3.70;;;16.60;99.90;;;;;;5029964;28;20408;-69
2021/05/19 08:27:26;;;;;;;4.13;3.73;;;16.50;99.90;;;;;;5029118;28;20268;-67
2021/05/19 08:29:53;;;;;;;5.83;3.40;;;16.50;99.90;;;;;;5030898;28;20186;-68
2021/05/19 08:32:18;;;;;;;4.10;3.80;;;16.70;99.90;;;;;;5029057;28;20198;-68
2021/05/19 08:34:45;;;;;;;3.90;3.60;;;16.70;99.90;;;;;;5036367;28;20395;-69
2021/05/19 08:37:10;;;;;;;5.07;4.10;;;16.60;99.90;;;;;;5036334;28;20210;-67
2021/05/19 08:39:36;;;;;;;4.27;3.90;;;16.50;99.90;;;;;;5034054;28;20463;-71
2021/05/19 08:42:02;;;;;;;4.93;4.53;;;16.20;99.90;;;;;;5025210;28;20217;-69
2021/05/19 08:44:28;;;;;;;5.70;4.60;;;16.30;99.90;;;;;;5036420;28;20178;-68
2021/05/19 08:46:56;;;;;;;4.77;4.37;;;16.40;99.90;;;;;;5030613;28;21895;-69
2021/05/19 08:49:24;;;;;;;5.80;5.20;;;16.40;99.90;;;;;;5032210;28;20178;-67
2021/05/19 08:51:50;;;;;;;4.13;3.83;;;16.50;99.90;;;;;;5032476;28;20549;-68
2021/05/19 08:54:18;;;;;;;5.20;4.70;;;16.40;99.90;;;;;;5028353;28;20477;-70
2021/05/19 08:56:46;;;;;;;4.40;3.80;;;16.40;99.90;;;;;;5030263;28;20206;-70
2021/05/19 08:59:12;;;;;;;4.13;3.33;;;16.30;99.90;;;;;;5028753;28;20536;-70
2021/05/19 09:01:49;;;;;;;5.23;4.67;;;16.50;99.90;;;;;;5026327;28;20969;-68
2021/05/19 09:04:19;;;;;;;3.90;2.87;;;16.40;99.90;;;;;;5026181;28;20427;-67
2021/05/19 09:06:55;;;;;;;4.13;3.73;;;16.60;99.90;;;;;;5028378;28;20447;-67
2021/05/19 09:09:22;;;;;;;3.80;3.50;;;16.50;99.90;;;;;;5020111;28;20463;-69
2021/05/19 09:11:54;;;;;;;3.80;3.50;;;16.70;99.90;;;;;;5012651;28;20611;-70
2021/05/19 09:14:19;;;;;;;3.60;3.30;;;16.60;99.90;;;;;;5013799;28;20424;-68
2021/05/19 09:16:45;;;;;;;3.97;3.57;;;16.70;99.90;;;;;;5008384;28;20482;-67
2021/05/19 09:19:12;;;;;;;4.17;3.77;;;16.70;99.90;;;;;;5013836;28;20210;-70
2021/05/19 09:21:40;;;;;;;3.97;3.67;;;16.80;99.90;;;;;;5013170;28;20543;-68
2021/05/19 09:24:21;;;;;;;4.20;3.80;;;16.90;99.90;;;;;;5013582;28;20435;-68
2021/05/19 09:27:02;;;;;;;4.93;4.50;;;16.60;99.90;;;;;;5014312;28;20953;-69
2021/05/19 09:29:33;;;;;;;6.73;4.90;;;16.70;99.90;;;;;;5014512;28;20454;-71
2021/05/19 09:32:01;;;;;;;6.17;3.50;;;16.70;99.90;;;;;;5011808;28;20496;-69
2021/05/19 09:34:38;;;;;;;10.13;7.23;;;16.60;99.90;;;;;;5012987;28;20981;-69
2021/05/19 09:37:15;;;;;;;6.50;5.90;;;16.50;99.90;;;;;;4994645;28;20455;-69
2021/05/19 09:39:48;;;;;;;6.03;4.73;;;16.40;99.90;;;;;;4994232;28;20442;-67
2021/05/19 09:42:14;;;;;;;4.43;4.03;;;16.30;99.90;;;;;;4993133;28;21033;-67
2021/05/19 09:44:40;;;;;;;4.63;4.10;;;16.30;99.90;;;;;;5011035;28;20504;-67
2021/05/19 09:47:06;;;;;;;6.90;6.30;;;16.50;99.90;;;;;;5011997;28;20941;-67
2021/05/19 09:49:31;;;;;;;8.73;7.93;;;16.30;99.90;;;;;;5010054;28;20627;-68
2021/05/19 09:52:07;;;;;;;6.87;5.77;;;16.20;99.90;;;;;;5003580;28;20261;-69
2021/05/19 09:54:39;;;;;;;6.60;6.10;;;16.30;99.90;;;;;;5008831;28;20250;-69
2021/05/19 09:57:07;;;;;;;5.50;5.00;;;16.30;99.90;;;;;;5006680;28;20495;-69
2021/05/19 09:59:34;;;;;;;5.43;4.80;;;16.40;99.90;;;;;;5008354;28;20464;-70
2021/05/19 10:02:01;;;;;;;6.60;6.00;;;16.40;99.90;;;;;;5010938;28;20461;-68
2021/05/19 10:04:32;;;;;;;6.97;6.37;;;16.40;99.90;;;;;;5013795;28;20420;-68
2021/05/19 10:06:58;;;;;;;6.70;6.10;;;16.50;99.90;;;;;;4983156;28;20876;-68
2021/05/19 10:09:26;;;;;;;5.83;5.27;;;16.20;99.90;;;;;;5022489;28;20478;-67
2021/05/19 10:11:52;;;;;;;6.73;6.13;;;16.40;99.90;;;;;;5030889;28;20349;-70
2021/05/19 10:14:21;;;;;;;11.40;6.53;;;16.40;99.90;;;;;;5033434;28;21029;-68
2021/05/19 10:16:50;;;;;;;5.80;5.20;;;16.50;99.90;;;;;;5032349;28;21115;-68
2021/05/19 10:19:25;;;;;;;6.27;5.23;;;16.60;99.90;;;;;;5027913;28;20466;-67
2021/05/19 10:21:52;;;;;;;6.60;4.87;;;16.70;99.90;;;;;;5028823;28;20473;-67
2021/05/19 10:24:17;;;;;;;5.30;4.50;;;16.90;99.90;;;;;;5032445;28;20957;-70
2021/05/19 10:27:05;;;;;;;4.60;4.20;;;16.70;99.90;;;;;;5033263;28;20447;-69
2021/05/19 10:29:46;;;;;;;4.40;4.00;;;16.60;99.90;;;;;;5031558;28;20197;-69
2021/05/19 10:32:26;;;;;;;4.97;3.90;;;16.60;99.90;;;;;;5033560;28;20519;-70
2021/05/19 10:35:28;;;;;;;4.27;3.87;;;16.60;99.90;;;;;;5031706;28;20834;-68
2021/05/19 10:37:56;;;;;;;4.63;3.83;;;16.60;99.90;;;;;;5021662;28;20812;-69
2021/05/19 10:40:22;;;;;;;4.00;3.67;;;16.50;99.90;;;;;;5027929;28;20476;-70
2021/05/19 10:42:53;;;;;;;4.87;4.47;;;16.50;99.90;;;;;;5032086;28;20493;-69
2021/05/19 10:45:19;;;;;;;6.00;5.40;;;16.40;99.90;;;;;;5031780;28;20523;-68
2021/05/19 10:47:46;;;;;;;4.30;3.90;;;16.40;99.90;;;;;;5023300;28;20547;-67
2021/05/19 10:58:59;;;;;;;4.23;3.50;;;16.80;99.90;;;;;;5001841;28;21249;-67
2021/05/19 11:01:38;;;;;;;4.00;3.60;;;17.00;99.90;;;;;;5021620;28;20569;-69
2021/05/19 11:04:20;;;;;;;4.40;4.00;;;17.00;99.90;;;;;;5012899;28;20443;-69
2021/05/19 11:07:01;;;;;;;3.93;3.53;;;17.10;99.90;;;;;;5031819;28;20885;-67
2021/05/19 11:09:28;;;;;;;3.40;3.10;;;17.10;99.90;;;;;;5030543;28;20532;-68
2021/05/19 11:12:21;;;;;;;4.37;3.93;;;17.10;99.90;;;;;;5031989;28;20543;-70
2021/05/19 11:14:57;;;;;;;3.90;3.50;;;17.10;99.90;;;;;;5032240;28;20423;-67
2021/05/19 11:20:10;;;;;;;7.50;3.77;;;17.10;99.90;;;;;;5031866;28;20459;-67
2021/05/19 11:22:36;;;;;;;3.43;3.13;;;17.20;99.90;;;;;;5032193;28;20454;-70
2021/05/19 11:25:04;;;;;;;5.17;2.90;;;17.20;99.90;;;;;;5030721;28;20987;-69
2021/05/19 11:27:32;;;;;;;3.03;2.80;;;17.30;99.90;;;;;;5042520;28;20675;-70
2021/05/19 11:30:00;;;;;;;3.03;2.83;;;17.30;99.90;;;;;;5014813;28;20809;-67
2021/05/19 11:32:28;;;;;;;3.50;2.27;;;17.30;99.90;;;;;;5029171;28;20450;-68
2021/05/19 11:35:09;;;;;;;4.10;3.80;;;17.40;99.90;;;;;;5028467;28;20423;-68
2021/05/19 11:37:35;;;;;;;4.47;3.40;;;17.40;99.90;;;;;;5025452;28;20474;-68
2021/05/19 11:40:01;;;;;;;3.73;3.43;;;17.30;99.90;;;;;;5029837;28;20467;-70
2021/05/19 11:42:28;;;;;;;2.67;2.47;;;17.50;99.90;;;;;;5021213;28;20221;-70
2021/05/19 11:44:58;;;;;;;3.27;3.00;;;17.60;99.90;;;;;;5028691;28;20213;-68
2021/05/19 11:47:47;;;;;;;4.07;3.67;;;17.60;99.90;;;;;;5025170;28;20505;-68
2021/05/19 11:50:27;;;;;;;3.87;3.30;;;17.50;99.90;;;;;;5013971;28;20423;-69
2021/05/19 11:53:10;;;;;;;4.33;3.70;;;17.60;99.90;;;;;;5027783;28;20522;-69
2021/05/19 11:55:45;;;;;;;5.53;4.20;;;17.70;99.90;;;;;;5024349;28;20513;-70
2021/05/19 11:58:23;;;;;;;4.37;3.97;;;17.60;99.90;;;;;;5029952;28;20447;-69
2021/05/19 12:00:50;;;;;;;4.73;4.23;;;17.70;99.90;;;;;;5029768;28;20475;-67
2021/05/19 12:03:22;;;;;;;5.00;4.17;;;17.80;99.90;;;;;;5025041;28;20502;-68
2021/05/19 12:05:47;;;;;;;4.20;3.90;;;17.80;99.90;;;;;;5028904;28;20447;-67
2021/05/19 12:08:15;;;;;;;4.90;3.50;;;18.00;99.90;;;;;;5028647;28;20956;-70
2021/05/19 12:10:43;;;;;;;4.63;4.10;;;18.20;99.90;;;;;;5028018;28;20242;-70
2021/05/19 12:13:13;;;;;;;4.33;3.97;;;18.10;99.90;;;;;;5025186;28;20443;-70
2021/05/19 12:15:40;;;;;;;5.90;3.93;;;18.20;99.90;;;;;;5037292;28;20923;-68
2021/05/19 12:18:08;;;;;;;5.70;3.87;;;18.40;99.90;;;;;;5025982;28;20486;-67
2021/05/19 12:20:37;;;;;;;4.60;4.20;;;18.40;99.90;;;;;;5023092;28;20911;-68
2021/05/19 12:23:05;;;;;;;4.60;4.10;;;18.50;99.90;;;;;;5026704;28;20448;-68
2021/05/19 12:25:32;;;;;;;4.40;4.00;;;18.40;99.90;;;;;;5027656;28;20420;-67
2021/05/19 12:28:04;;;;;;;5.90;4.07;;;18.70;99.90;;;;;;5025580;28;20442;-71
2021/05/19 12:30:43;;;;;;;5.47;4.17;;;18.70;99.90;;;;;;5024989;28;20443;-68
2021/05/19 12:33:10;;;;;;;5.73;4.60;;;19.00;99.90;;;;;;5031208;28;20782;-71
2021/05/19 12:35:46;;;;;;;5.30;4.80;;;18.90;99.90;;;;;;5031974;28;20461;-70
2021/05/19 12:38:13;;;;;;;6.60;5.17;;;19.00;99.90;;;;;;5032536;28;20521;-70
2021/05/19 12:40:39;;;;;;;5.37;4.57;;;19.10;99.90;;;;;;5032438;28;20594;-70
2021/05/19 12:43:10;;;;;;;5.53;5.03;;;18.80;99.90;;;;;;5031875;28;20443;-70
2021/05/19 12:45:37;;;;;;;6.60;5.53;;;18.90;99.90;;;;;;5024889;28;20454;-71
2021/05/19 12:48:07;;;;;;;6.53;5.30;;;18.90;99.90;;;;;;5029639;28;20452;-68
2021/05/19 12:50:44;;;;;;;5.77;5.17;;;19.10;99.90;;;;;;5023501;28;20459;-70
2021/05/19 12:53:39;;;;;;;5.13;4.73;;;19.30;99.90;;;;;;5047183;28;20813;-71
2021/05/19 12:56:05;;;;;;;8.53;5.30;;;18.90;99.90;;;;;;5030904;28;20428;-68
2021/05/19 12:58:53;;;;;;;5.63;4.77;;;19.10;99.90;;;;;;5031517;28;20597;-70
2021/05/19 13:01:19;;;;;;;8.40;5.80;;;18.80;99.90;;;;;;5031269;28;20214;-70
2021/05/19 13:03:45;;;;;;;6.87;6.17;;;18.90;99.90;;;;;;5032208;28;20396;-70
2021/05/19 13:06:11;;;;;;;7.13;6.37;;;18.70;99.90;;;;;;5030720;28;20217;-70